Time;durP1;ratioP1;P1;durP2;ratioP2;P2;SDS_P1;SDS_P2;PMS_P1;PMS_P2;Temp;Humidity;BMP_temperature;BMP_pressure;BME280_temperature;BME280_humidity;BME280_pressure;Samples;Min_cycle;Max_cycle;Signal;HPM_P1;HPM_P2
2022/12/06 00:01:13;;;;;;;;;57.00;44.00;;;;;5.22;69.47;101850.06;6249910;22;45936;-83
2022/12/06 00:03:40;;;;;;;;;51.25;38.00;;;;;5.23;69.29;101838.78;6249847;22;45514;-83
2022/12/06 00:06:17;;;;;;;;;53.00;39.00;;;;;5.12;69.10;101816.63;6249996;22;45316;-80
2022/12/06 00:08:44;;;;;;;;;42.00;37.25;;;;;5.18;69.20;101825.53;6252669;22;47902;-81
2022/12/06 00:11:12;;;;;;;;;49.50;40.25;;;;;5.24;69.06;101835.34;6278921;22;45668;-82
2022/12/06 00:13:39;;;;;;;;;47.50;37.75;;;;;5.10;69.19;101813.94;6252040;22;44756;-81
2022/12/06 00:16:07;;;;;;;;;49.25;40.00;;;;;5.20;69.00;101833.44;6251493;22;45402;-79
2022/12/06 00:18:44;;;;;;;;;45.75;38.50;;;;;5.00;69.13;101796.22;6248498;22;46845;-80
2022/12/06 00:21:30;;;;;;;;;43.25;38.25;;;;;5.17;69.07;101823.78;6250398;22;45629;-79
2022/12/06 00:23:59;;;;;;;;;40.50;33.25;;;;;5.13;68.97;101823.59;6248966;22;45432;-80
2022/12/06 00:26:28;;;;;;;;;41.00;37.25;;;;;5.12;69.21;101814.00;6249866;22;45465;-80
2022/12/06 00:29:01;;;;;;;;;46.75;39.00;;;;;5.09;69.12;101806.97;6249432;22;46990;-80
2022/12/06 00:31:28;;;;;;;;;48.75;40.00;;;;;5.08;68.95;101798.25;6277003;22;45626;-79
2022/12/06 00:33:54;;;;;;;;;40.75;38.00;;;;;5.00;69.37;101784.03;6248952;22;45481;-79
2022/12/06 00:36:23;;;;;;;;;42.75;38.00;;;;;5.09;69.24;101796.53;6247799;22;45477;-80
2022/12/06 00:38:50;;;;;;;;;45.75;39.75;;;;;5.13;68.93;101810.56;6249461;22;46413;-80
2022/12/06 00:41:18;;;;;;;;;43.50;38.50;;;;;4.94;69.11;101782.91;6249116;22;45252;-80
2022/12/06 00:43:44;;;;;;;;;43.50;40.00;;;;;5.10;69.13;101808.72;6249542;22;45281;-80
2022/12/06 00:46:14;;;;;;;;;43.00;38.00;;;;;5.00;69.04;101794.47;6248889;22;45497;-80
2022/12/06 00:48:39;;;;;;;;;42.00;36.75;;;;;5.04;69.55;101792.84;6247709;22;47243;-79
2022/12/06 00:51:05;;;;;;;;;45.00;39.00;;;;;5.04;69.23;101787.63;6247490;22;45181;-80
2022/12/06 00:53:31;;;;;;;;;48.50;38.00;;;;;4.93;69.54;101774.22;6249196;22;45238;-81
2022/12/06 00:55:56;;;;;;;;;50.75;40.75;;;;;5.06;69.36;101793.81;6277170;22;45386;-80
2022/12/06 00:58:25;;;;;;;;;46.50;40.25;;;;;4.99;69.31;101779.63;6249892;22;46824;-80
2022/12/06 01:00:51;;;;;;;;;48.25;39.50;;;;;5.02;69.25;101781.47;6249207;22;45677;-80
2022/12/06 01:03:17;;;;;;;;;54.00;41.25;;;;;5.01;69.34;101772.75;6249323;22;45445;-79
2022/12/06 01:05:47;;;;;;;;;44.75;37.00;;;;;5.04;69.18;101777.19;6277554;22;45364;-80
2022/12/06 01:08:16;;;;;;;;;36.75;30.25;;;;;5.14;69.29;101791.47;6250467;22;45725;-84
2022/12/06 01:10:41;;;;;;;;;56.00;40.25;;;;;5.08;69.46;101776.50;6252586;22;45386;-84
2022/12/06 01:13:07;;;;;;;;;42.50;39.00;;;;;5.16;69.34;101795.00;6280411;22;45311;-84
2022/12/06 01:15:37;;;;;;;;;46.25;39.00;;;;;5.12;69.36;101775.75;6280994;22;45405;-84
2022/12/06 01:18:05;;;;;;;;;39.00;34.00;;;;;5.17;69.47;101791.56;6278563;22;45610;-84
2022/12/06 01:20:31;;;;;;;;;46.75;36.50;;;;;5.19;69.52;101796.03;6252459;22;45299;-83
2022/12/06 01:23:00;;;;;;;;;46.00;37.50;;;;;5.13;69.58;101785.34;6251454;22;45292;-84
2022/12/06 01:25:35;;;;;;;;;42.75;38.25;;;;;5.22;69.66;101788.28;6253095;22;45404;-84
2022/12/06 01:28:01;;;;;;;;;45.50;38.75;;;;;5.13;69.63;101767.06;6251151;22;46572;-85
2022/12/06 01:30:26;;;;;;;;;50.50;40.00;;;;;5.16;69.56;101772.44;6252782;22;45220;-85
2022/12/06 01:32:52;;;;;;;;;45.75;36.75;;;;;5.16;69.46;101769.81;6251759;22;45284;-84
2022/12/06 01:35:19;;;;;;;;;45.25;37.25;;;;;5.19;69.36;101769.03;6252238;22;45184;-85
2022/12/06 01:37:44;;;;;;;;;45.25;35.50;;;;;5.40;69.72;101816.78;6278870;22;45413;-84
2022/12/06 01:40:14;;;;;;;;;43.75;34.00;;;;;5.31;69.49;101791.22;6252287;22;45276;-84
2022/12/06 01:42:49;;;;;;;;;35.00;31.00;;;;;5.20;69.66;101770.78;6252841;22;45219;-85
2022/12/06 01:45:15;;;;;;;;;36.50;33.50;;;;;5.22;69.58;101771.75;6253332;22;45316;-85
2022/12/06 01:47:43;;;;;;;;;40.50;37.50;;;;;5.12;69.60;101767.91;6253410;22;48063;-85
2022/12/06 01:50:22;;;;;;;;;42.25;32.75;;;;;5.28;69.78;101800.66;6253097;22;45188;-85
2022/12/06 01:53:10;;;;;;;;;33.75;31.00;;;;;5.17;69.67;101778.53;6254573;22;45409;-85
2022/12/06 01:55:38;;;;;;;;;42.50;35.25;;;;;5.13;70.23;101777.50;6253296;22;45096;-85
2022/12/06 01:58:16;;;;;;;;;40.25;31.00;;;;;5.15;70.21;101785.41;6279584;22;45610;-85
2022/12/06 02:00:45;;;;;;;;;44.50;35.00;;;;;5.26;70.19;101791.88;6252153;22;44736;-85
2022/12/06 02:03:19;;;;;;;;;40.25;37.00;;;;;5.14;69.98;101770.59;6252364;22;45217;-84
2022/12/06 02:05:44;;;;;;;;;34.50;32.50;;;;;5.16;70.13;101776.72;6252041;22;45409;-84
2022/12/06 02:08:12;;;;;;;;;42.00;34.25;;;;;5.23;70.11;101783.94;6250995;22;47711;-84
2022/12/06 02:10:38;;;;;;;;;39.50;31.25;;;;;5.28;70.23;101809.38;6251940;22;45179;-85
2022/12/06 02:13:05;;;;;;;;;40.25;35.25;;;;;5.25;70.08;101798.84;6251246;22;45253;-84
2022/12/06 02:15:49;;;;;;;;;42.50;34.00;;;;;5.26;70.21;101804.94;6278902;22;45469;-84
2022/12/06 02:18:25;;;;;;;;;44.25;36.25;;;;;5.17;70.27;101788.97;6250417;22;45626;-84
2022/12/06 02:21:05;;;;;;;;;48.75;38.75;;;;;5.16;70.39;101788.09;6251077;22;45336;-84
2022/12/06 02:23:46;;;;;;;;;45.25;37.25;;;;;5.12;70.45;101790.53;6250787;22;45133;-83
2022/12/06 02:26:39;;;;;;;;;45.75;38.00;;;;;5.23;70.31;101805.72;6251994;22;45359;-83
2022/12/06 02:29:44;;;;;;;;;43.50;39.50;;;;;5.20;70.35;101807.34;6252044;22;48049;-83
2022/12/06 02:32:18;;;;;;;;;53.25;40.75;;;;;4.97;70.59;101776.09;6220770;22;45148;-83
2022/12/06 02:35:10;;;;;;;;;48.00;38.50;;;;;5.11;70.71;101805.31;6252712;22;45268;-84
2022/12/06 02:37:56;;;;;;;;;52.00;37.50;;;;;5.08;70.76;101800.84;6279930;22;45164;-84
2022/12/06 02:40:31;;;;;;;;;48.25;38.25;;;;;5.15;70.75;101811.50;6252309;22;46973;-84
2022/12/06 02:43:05;;;;;;;;;42.00;36.50;;;;;5.15;71.04;101812.38;6251941;22;45730;-84
2022/12/06 02:45:37;;;;;;;;;56.75;38.50;;;;;5.06;71.33;101794.69;6252724;22;45277;-85
2022/12/06 02:48:06;;;;;;;;;43.75;38.25;;;;;5.11;71.12;101799.19;6253250;22;45188;-84
2022/12/06 02:50:38;;;;;;;;;41.25;34.50;;;;;5.13;71.36;101790.56;6253664;22;46697;-83
2022/12/06 02:53:09;;;;;;;;;42.75;35.50;;;;;5.09;71.28;101779.13;6253515;22;45436;-83
2022/12/06 02:55:39;;;;;;;;;45.00;38.25;;;;;5.07;71.57;101769.47;6254012;22;45480;-84
2022/12/06 02:58:04;;;;;;;;;41.25;35.50;;;;;5.10;70.93;101766.97;6254400;22;45586;-84
2022/12/06 03:00:39;;;;;;;;;41.25;33.50;;;;;5.33;71.40;101798.22;6255912;22;47538;-84
2022/12/06 03:03:35;;;;;;;;;47.00;39.00;;;;;5.30;71.31;101799.00;6256124;22;45237;-84
2022/12/06 03:06:00;;;;;;;;;45.75;38.50;;;;;5.39;71.33;101811.47;6255477;22;45165;-83
2022/12/06 03:08:53;;;;;;;;;39.75;32.50;;;;;5.40;71.00;101813.25;6253987;22;45396;-84
2022/12/06 03:11:19;;;;;;;;;47.00;39.50;;;;;5.42;71.08;101809.84;6250919;22;45426;-84
2022/12/06 03:13:50;;;;;;;;;46.00;38.50;;;;;5.45;70.93;101811.69;6251505;22;45387;-84
2022/12/06 03:16:34;;;;;;;;;40.00;34.50;;;;;5.43;71.04;101803.81;6279649;22;45355;-84
2022/12/06 03:19:25;;;;;;;;;35.50;29.25;;;;;5.33;70.94;101778.22;6279119;22;45494;-83
2022/12/06 03:21:56;;;;;;;;;44.50;38.50;;;;;5.47;70.89;101800.44;6278275;22;46332;-85
2022/12/06 03:24:25;;;;;;;;;42.25;37.00;;;;;5.41;71.25;101796.75;6252497;22;45366;-84
2022/12/06 03:26:57;;;;;;;;;37.75;32.75;;;;;5.39;71.16;101793.22;6252218;22;45327;-85
2022/12/06 03:29:27;;;;;;;;;37.75;33.25;;;;;5.48;70.77;101802.25;6251765;22;45478;-84
2022/12/06 03:31:54;;;;;;;;;40.25;36.00;;;;;5.36;71.23;101773.09;6252204;22;45323;-84
2022/12/06 03:34:42;;;;;;;;;45.00;36.75;;;;;5.41;70.88;101783.72;6280494;22;45394;-84
2022/12/06 03:37:17;;;;;;;;;37.75;33.75;;;;;5.39;70.75;101783.63;6250831;22;45378;-85
2022/12/06 03:39:48;;;;;;;;;39.50;35.00;;;;;5.50;70.95;101800.56;6253029;22;45379;-83
2022/12/06 03:42:18;;;;;;;;;31.00;29.75;;;;;5.42;70.91;101788.09;6252461;22;46646;-85
2022/12/06 03:44:47;;;;;;;;;45.00;37.50;;;;;5.28;71.27;101769.34;6254420;22;45409;-84
2022/12/06 03:47:29;;;;;;;;;42.25;37.25;;;;;5.39;70.89;101794.09;6254467;22;45185;-84
2022/12/06 03:50:18;;;;;;;;;39.50;30.25;;;;;5.31;71.29;101783.38;6254698;22;45446;-84
2022/12/06 03:52:49;;;;;;;;;42.25;36.00;;;;;5.30;71.52;101776.38;6254482;22;47229;-85
2022/12/06 03:55:15;;;;;;;;;37.75;33.50;;;;;5.30;71.19;101768.56;6256578;22;45406;-85
2022/12/06 03:57:41;;;;;;;;;33.25;27.00;;;;;5.47;71.01;101802.19;6255013;22;45240;-84
2022/12/06 04:00:08;;;;;;;;;36.75;33.75;;;;;5.42;71.13;101786.34;6254229;22;45197;-85
2022/12/06 04:02:33;;;;;;;;;46.50;38.00;;;;;5.50;71.10;101804.91;6254681;22;47628;-84
2022/12/06 04:05:05;;;;;;;;;37.50;35.00;;;;;5.51;71.23;101802.34;6252915;22;45264;-84
2022/12/06 04:07:31;;;;;;;;;45.75;36.50;;;;;5.31;71.47;101770.31;6253258;22;45206;-84
2022/12/06 04:10:08;;;;;;;;;45.50;36.00;;;;;5.51;70.98;101802.34;6279910;22;45164;-84
2022/12/06 04:15:28;;;;;;;;;40.75;35.00;;;;;5.47;71.45;101802.19;6279878;22;45368;-84
2022/12/06 04:23:51;;;;;;;;;35.75;31.00;;;;;5.54;71.56;101804.19;6279614;22;45378;-84
2022/12/06 04:26:20;;;;;;;;;39.25;34.75;;;;;5.55;71.65;101797.22;6252219;22;45269;-84
2022/12/06 04:39:44;;;;;;;;;34.75;28.00;;;;;5.48;71.76;101780.44;6280050;22;45172;-84
2022/12/06 04:44:55;;;;;;;;;37.25;35.25;;;;;5.48;71.58;101777.84;6280597;22;45149;-83
2022/12/06 04:47:24;;;;;;;;;32.00;29.75;;;;;5.42;71.47;101775.91;6252674;22;45386;-84
2022/12/06 04:49:50;;;;;;;;;34.00;32.25;;;;;5.57;71.67;101799.06;6251957;22;45298;-83
2022/12/06 04:52:16;;;;;;;;;41.00;32.50;;;;;5.42;71.46;101767.19;6280108;22;45412;-84
2022/12/06 04:54:42;;;;;;;;;37.00;28.75;;;;;5.54;71.89;101785.91;6254204;22;45265;-84
2022/12/06 04:57:11;;;;;;;;;44.50;32.50;;;;;5.61;71.65;101786.97;6255406;22;45141;-83
2022/12/06 04:59:41;;;;;;;;;38.50;32.75;;;;;5.46;71.84;101758.63;6254927;22;45367;-84
2022/12/06 05:02:11;;;;;;;;;33.75;30.50;;;;;5.49;71.63;101766.56;6254667;22;45208;-83
2022/12/06 05:04:36;;;;;;;;;42.75;37.25;;;;;5.56;71.62;101770.25;6253092;22;45624;-85
2022/12/06 05:07:02;;;;;;;;;39.50;32.75;;;;;5.55;72.22;101769.38;6251710;22;45287;-84
2022/12/06 05:09:34;;;;;;;;;40.00;34.75;;;;;5.53;71.43;101761.50;6252086;22;45358;-84
2022/12/06 05:12:02;;;;;;;;;43.00;33.25;;;;;5.52;71.94;101753.63;6279622;22;45264;-84
2022/12/06 05:14:28;;;;;;;;;32.75;27.00;;;;;5.52;72.02;101746.66;6251647;22;47861;-84
2022/12/06 05:16:54;;;;;;;;;40.50;35.25;;;;;5.70;72.12;101784.69;6251231;22;45336;-83
2022/12/06 05:19:20;;;;;;;;;30.50;27.75;;;;;5.69;71.71;101783.81;6252424;22;45293;-84
2022/12/06 05:21:48;;;;;;;;;29.25;29.00;;;;;5.67;71.93;101771.53;6249691;22;45372;-83
2022/12/06 05:24:15;;;;;;;;;39.50;31.25;;;;;5.55;71.90;101745.88;6251229;22;47035;-84
2022/12/06 05:26:40;;;;;;;;;35.25;32.25;;;;;5.51;71.86;101736.19;6250094;22;45365;-84
2022/12/06 05:29:09;;;;;;;;;33.00;30.50;;;;;5.55;72.19;101740.66;6279817;22;45456;-84
2022/12/06 05:31:38;;;;;;;;;33.75;31.75;;;;;5.72;71.81;101778.69;6251090;22;45299;-84
2022/12/06 05:34:03;;;;;;;;;38.50;32.25;;;;;5.66;71.90;101761.91;6278422;22;45189;-84
2022/12/06 05:36:29;;;;;;;;;38.75;28.25;;;;;5.66;72.03;101768.00;6251064;22;45263;-84
2022/12/06 05:38:55;;;;;;;;;38.75;33.00;;;;;5.62;72.33;101762.66;6279505;22;45228;-84
2022/12/06 05:41:26;;;;;;;;;38.75;29.75;;;;;5.63;72.30;101754.84;6251412;22;45276;-84
2022/12/06 05:43:54;;;;;;;;;36.75;31.00;;;;;5.56;72.15;101750.28;6251027;22;45473;-84
2022/12/06 05:46:23;;;;;;;;;45.75;37.75;;;;;5.62;72.30;101755.69;6251397;22;45277;-84
2022/12/06 05:48:48;;;;;;;;;47.00;37.00;;;;;5.49;72.17;101737.84;6251842;22;45276;-85
2022/12/06 05:51:14;;;;;;;;;45.00;38.50;;;;;5.63;72.44;101760.06;6253632;22;45313;-85
2022/12/06 05:53:45;;;;;;;;;48.75;39.75;;;;;5.46;72.17;101730.78;6254450;22;45457;-84
2022/12/06 05:56:12;;;;;;;;;45.00;35.25;;;;;5.61;72.27;101763.47;6254214;22;45258;-84
2022/12/06 05:58:41;;;;;;;;;40.75;35.25;;;;;5.50;72.18;101747.44;6254151;22;45202;-84
2022/12/06 06:01:07;;;;;;;;;41.25;35.00;;;;;5.58;71.96;101755.53;6252911;22;45428;-84
2022/12/06 06:03:36;;;;;;;;;47.25;38.00;;;;;5.57;71.98;101759.88;6251599;22;45453;-84
2022/12/06 06:06:05;;;;;;;;;51.00;40.00;;;;;5.42;72.07;101741.06;6251199;22;45264;-84
2022/12/06 06:08:30;;;;;;;;;45.00;39.00;;;;;5.46;72.52;101751.69;6250717;22;45455;-84
2022/12/06 06:10:57;;;;;;;;;47.00;39.75;;;;;5.44;72.48;101735.06;6251234;22;45276;-84
2022/12/06 06:13:23;;;;;;;;;47.25;39.50;;;;;5.49;72.11;101740.47;6250476;22;45704;-85
2022/12/06 06:15:51;;;;;;;;;39.00;34.00;;;;;5.61;72.30;101766.97;6251097;22;45264;-84
2022/12/06 06:18:35;;;;;;;;;50.50;39.75;;;;;5.62;72.17;101768.75;6278373;22;45377;-87
2022/12/06 06:21:03;;;;;;;;;47.50;38.25;;;;;5.60;72.15;101765.19;6250903;22;45441;-84
2022/12/06 06:23:29;;;;;;;;;47.50;39.00;;;;;5.49;72.41;101750.91;6250197;22;48389;-84
2022/12/06 06:25:56;;;;;;;;;50.25;39.75;;;;;5.44;72.52;101742.91;6251094;22;45221;-83
2022/12/06 06:28:27;;;;;;;;;50.50;38.50;;;;;5.42;72.24;101746.31;6250462;22;45284;-84
2022/12/06 06:30:56;;;;;;;;;56.25;40.00;;;;;5.46;72.32;101759.53;6251362;22;45359;-85
2022/12/06 06:33:21;;;;;;;;;50.75;39.00;;;;;5.34;72.45;101750.38;6249874;22;47164;-84
2022/12/06 06:35:50;;;;;;;;;46.00;37.75;;;;;5.50;72.50;101779.66;6251633;22;45137;-84
2022/12/06 06:38:19;;;;;;;;;47.00;37.25;;;;;5.34;72.66;101756.47;6250225;22;45306;-84
2022/12/06 06:40:48;;;;;;;;;54.00;39.75;;;;;5.43;72.68;101779.44;6279628;22;45349;-84
2022/12/06 06:43:19;;;;;;;;;47.25;38.50;;;;;5.45;72.86;101781.25;6249903;22;47699;-84
2022/12/06 06:46:05;;;;;;;;;39.25;33.75;;;;;5.31;72.63;101757.25;6251329;22;45347;-84
2022/12/06 06:48:36;;;;;;;;;57.50;41.00;;;;;5.47;72.55;101783.91;6251398;22;45267;-84
2022/12/06 06:51:10;;;;;;;;;48.25;39.00;;;;;5.48;72.77;101798.72;6280759;22;45402;-83
2022/12/06 06:53:36;;;;;;;;;54.25;40.00;;;;;5.38;72.86;101776.66;6280426;22;45520;-84
2022/12/06 06:56:03;;;;;;;;;48.50;37.25;;;;;5.33;72.90;101765.16;6251865;22;45501;-84
2022/12/06 06:58:34;;;;;;;;;46.75;40.00;;;;;5.40;72.96;101782.81;6252372;22;45259;-84
2022/12/06 07:01:02;;;;;;;;;54.50;39.75;;;;;5.37;72.74;101772.25;6253408;22;45110;-84
2022/12/06 07:03:28;;;;;;;;;51.50;38.50;;;;;5.37;72.83;101773.97;6250922;22;46729;-84
2022/12/06 07:06:00;;;;;;;;;43.25;34.00;;;;;5.45;73.00;101788.19;6277789;22;45331;-84
2022/12/06 07:08:27;;;;;;;;;47.00;39.75;;;;;5.30;73.12;101770.28;6251979;22;45423;-85
2022/12/06 07:10:54;;;;;;;;;47.00;39.25;;;;;5.27;73.33;101758.00;6250566;22;45384;-83
2022/12/06 07:13:24;;;;;;;;;39.00;33.75;;;;;5.29;73.07;101761.56;6251778;22;47261;-84
2022/12/06 07:15:57;;;;;;;;;50.50;39.00;;;;;5.26;73.23;101758.81;6251152;22;45245;-84
2022/12/06 07:18:23;;;;;;;;;57.50;44.00;;;;;5.25;72.97;101753.56;6251713;22;45196;-84
2022/12/06 07:20:58;;;;;;;;;41.75;37.25;;;;;5.33;73.34;101780.81;6254476;22;45252;-83
2022/12/06 07:23:26;;;;;;;;;47.00;40.00;;;;;5.19;73.41;101755.97;6251984;22;45495;-81
2022/12/06 07:26:00;;;;;;;;;54.25;41.50;;;;;5.29;73.30;101777.25;6251511;22;45385;-83
2022/12/06 07:28:27;;;;;;;;;56.50;41.50;;;;;5.37;73.51;101790.53;6251714;22;45343;-83
2022/12/06 07:30:52;;;;;;;;;57.00;40.75;;;;;5.25;73.02;101769.25;6251441;22;45307;-81
2022/12/06 07:33:18;;;;;;;;;56.00;41.00;;;;;5.31;73.61;101783.38;6252503;22;45657;-82
2022/12/06 07:35:49;;;;;;;;;61.00;42.00;;;;;5.38;74.08;101788.84;6251599;22;45391;-81
2022/12/06 07:38:18;;;;;;;;;56.50;44.00;;;;;5.29;73.94;101774.63;6252146;22;45371;-82
2022/12/06 07:40:44;;;;;;;;;60.00;42.75;;;;;5.14;73.57;101750.59;6253992;22;45305;-80
2022/12/06 07:45:57;;;;;;;;;60.00;47.25;;;;;5.21;73.49;101773.47;6282674;22;45208;-82
2022/12/06 07:48:23;;;;;;;;;51.75;43.25;;;;;5.24;73.84;101777.91;6282958;22;45208;-80
2022/12/06 07:50:51;;;;;;;;;56.00;44.75;;;;;5.21;73.85;101768.25;6254732;22;45188;-80
2022/12/06 07:53:20;;;;;;;;;61.25;48.50;;;;;5.31;74.22;101785.09;6254585;22;45752;-81
2022/12/06 07:55:48;;;;;;;;;52.25;44.75;;;;;5.16;74.33;101756.75;6256061;22;45166;-84
2022/12/06 07:58:14;;;;;;;;;54.00;43.75;;;;;5.17;73.95;101758.53;6254793;22;45218;-85
2022/12/06 08:00:40;;;;;;;;;54.25;41.25;;;;;5.36;74.16;101785.28;6253434;22;45179;-85
2022/12/06 08:03:07;;;;;;;;;44.00;35.50;;;;;5.27;74.12;101767.56;6252339;22;45407;-86
2022/12/06 08:05:33;;;;;;;;;52.25;40.00;;;;;5.30;74.46;101772.91;6251295;22;45367;-84
2022/12/06 08:07:58;;;;;;;;;44.75;39.00;;;;;5.26;74.31;101760.56;6251010;22;45331;-84
2022/12/06 08:10:24;;;;;;;;;46.25;39.75;;;;;5.27;74.10;101767.56;6280139;22;45413;-84
2022/12/06 08:12:49;;;;;;;;;46.75;40.00;;;;;5.49;74.25;101808.34;6278745;22;46275;-84
2022/12/06 08:15:24;;;;;;;;;46.25;41.75;;;;;5.43;74.12;101798.59;6253161;22;45275;-81
2022/12/06 08:17:52;;;;;;;;;57.25;41.00;;;;;5.42;74.36;101790.69;6251546;22;45246;-80
2022/12/06 08:20:18;;;;;;;;;52.50;39.00;;;;;5.55;74.20;101818.13;6250339;22;45390;-79
2022/12/06 08:22:44;;;;;;;;;49.75;41.00;;;;;5.37;74.25;101789.66;6250134;22;46601;-82
2022/12/06 08:25:09;;;;;;;;;52.00;40.75;;;;;5.50;74.53;101813.63;6279716;22;45196;-82
2022/12/06 08:27:38;;;;;;;;;56.00;43.75;;;;;5.44;74.30;101799.47;6251249;22;45508;-82
2022/12/06 08:30:07;;;;;;;;;62.25;46.75;;;;;5.42;74.75;101798.53;6251014;22;45501;-84
2022/12/06 08:32:36;;;;;;;;;57.25;42.75;;;;;5.65;74.53;101835.88;6250607;22;47590;-84
2022/12/06 08:35:04;;;;;;;;;62.50;45.50;;;;;5.48;74.59;101803.94;6250603;22;45436;-81
2022/12/06 08:37:35;;;;;;;;;62.75;47.75;;;;;5.45;74.21;101802.16;6250491;22;45349;-80
2022/12/06 08:40:00;;;;;;;;;49.50;38.75;;;;;5.49;74.52;101811.84;6277627;22;45387;-81
2022/12/06 08:42:26;;;;;;;;;59.00;46.75;;;;;5.58;74.49;101828.66;6249882;22;47014;-81
2022/12/06 08:44:53;;;;;;;;;57.00;43.50;;;;;5.50;74.40;101828.41;6278866;22;45342;-80
2022/12/06 08:47:21;;;;;;;;;58.25;44.50;;;;;5.60;74.33;101840.06;6253237;22;45402;-80
2022/12/06 08:49:48;;;;;;;;;56.50;43.00;;;;;5.63;74.30;101851.50;6254072;22;45143;-80
2022/12/06 08:52:38;;;;;;;;;55.50;45.25;;;;;5.53;74.45;101844.16;6253167;22;46963;-80
2022/12/06 08:55:04;;;;;;;;;56.25;45.00;;;;;5.41;74.57;101825.47;6251908;22;45343;-80
2022/12/06 08:57:34;;;;;;;;;57.75;45.25;;;;;5.55;74.48;101860.78;6250280;22;45405;-80
2022/12/06 09:00:00;;;;;;;;;58.25;46.50;;;;;5.28;74.82;101818.94;6250441;22;45356;-80
2022/12/06 09:02:29;;;;;;;;;61.25;48.50;;;;;5.31;74.55;101825.16;6249974;22;46620;-82
2022/12/06 09:04:54;;;;;;;;;64.25;48.50;;;;;5.28;74.76;101832.88;6278695;22;45366;-81
2022/12/06 09:07:25;;;;;;;;;62.50;47.25;;;;;5.47;75.13;101864.84;6250497;22;45365;-81
2022/12/06 09:09:57;;;;;;;;;56.75;42.50;;;;;5.29;75.02;101831.16;6254243;22;45393;-82
2022/12/06 09:12:24;;;;;;;;;55.00;44.50;;;;;5.47;75.29;101865.75;6250162;22;46857;-81
2022/12/06 09:14:50;;;;;;;;;63.25;47.25;;;;;5.36;75.03;101842.72;6250777;22;45231;-82
2022/12/06 09:17:16;;;;;;;;;60.50;46.50;;;;;5.36;75.28;101845.31;6250662;22;45327;-81
2022/12/06 09:19:41;;;;;;;;;57.75;44.00;;;;;5.28;75.19;101850.28;6278531;22;45230;-82
2022/12/06 09:22:07;;;;;;;;;56.00;43.00;;;;;5.40;75.22;101866.38;6250952;22;45412;-81
2022/12/06 09:24:33;;;;;;;;;68.50;50.25;;;;;5.24;75.19;101846.66;6279209;22;45358;-82
2022/12/06 09:26:58;;;;;;;;;63.50;46.25;;;;;5.37;75.23;101865.38;6250834;22;45323;-82
2022/12/06 09:29:27;;;;;;;;;62.25;47.00;;;;;5.29;75.36;101858.16;6279138;22;45516;-81
2022/12/06 09:31:52;;;;;;;;;50.00;43.00;;;;;5.20;75.74;101833.44;6252972;22;46872;-84
2022/12/06 09:34:18;;;;;;;;;63.25;49.25;;;;;5.25;75.54;101840.59;6249880;22;45191;-83
2022/12/06 09:36:52;;;;;;;;;60.50;46.25;;;;;5.41;75.75;101870.75;6252820;22;45206;-83
2022/12/06 09:39:23;;;;;;;;;64.50;46.25;;;;;5.44;75.29;101876.09;6250220;22;45193;-80
2022/12/06 09:42:10;;;;;;;;;59.25;44.25;;;;;5.46;75.76;101873.53;6251628;22;46564;-80
2022/12/06 09:45:08;;;;;;;;;61.75;48.75;;;;;5.47;75.68;101875.31;6249669;22;45292;-80
2022/12/06 09:48:18;;;;;;;;;57.75;45.00;;;;;5.45;75.71;101879.59;6279811;22;45150;-81
2022/12/06 09:51:09;;;;;;;;;55.75;40.75;;;;;5.24;75.48;101848.41;6254709;22;45312;-82
2022/12/06 09:54:32;;;;;;;;;60.00;46.25;;;;;5.30;75.52;101864.28;6275562;22;45605;-80
2022/12/06 09:57:11;;;;;;;;;60.25;46.25;;;;;5.37;75.83;101881.03;6226176;22;45499;-80
2022/12/06 09:59:53;;;;;;;;;57.00;41.75;;;;;5.39;75.79;101880.25;6247537;22;45336;-81
2022/12/06 10:02:41;;;;;;;;;51.25;44.25;;;;;5.25;75.91;101861.50;6249816;22;45315;-79
2022/12/06 10:05:21;;;;;;;;;56.25;42.25;;;;;5.38;76.49;101885.44;6213149;22;46071;-80
2022/12/06 10:07:55;;;;;;;;;56.00;45.50;;;;;5.41;76.12;101890.78;6276025;22;45272;-80
2022/12/06 10:10:31;;;;;;;;;61.00;46.25;;;;;5.30;76.24;101859.06;6248171;22;45363;-80
2022/12/06 10:13:11;;;;;;;;;65.50;49.00;;;;;5.49;76.37;101884.09;6278487;22;45245;-80
2022/12/06 10:16:13;;;;;;;;;59.75;45.00;;;;;5.47;76.31;101873.56;6247813;22;47220;-79
2022/12/06 10:18:38;;;;;;;;;59.25;44.25;;;;;5.50;76.41;101881.50;6275236;22;45192;-80
2022/12/06 10:21:06;;;;;;;;;61.25;47.75;;;;;5.52;76.40;101877.25;6275685;22;45600;-79
2022/12/06 10:24:10;;;;;;;;;59.50;48.00;;;;;5.54;76.54;101877.31;6248400;22;45498;-80
2022/12/06 10:27:03;;;;;;;;;54.50;44.75;;;;;5.47;76.64;101857.03;6250847;22;47145;-85
2022/12/06 10:30:18;;;;;;;;;;;;;;;;;;;;;
2022/12/06 10:36:20;;;;;;;;;;;;;;;;;;;;;
2022/12/06 10:38:52;;;;;;;;;57.00;44.00;;;;;5.46;76.62;101853.53;6241424;22;46031;-82
2022/12/06 10:41:45;;;;;;;;;58.75;45.00;;;;;5.45;76.46;101854.38;6245214;22;45222;-79
2022/12/06 10:44:24;;;;;;;;;60.00;43.25;;;;;5.49;76.35;101855.38;6247404;22;45208;-79
2022/12/06 10:47:14;;;;;;;;;59.75;45.00;;;;;5.68;76.47;101886.50;6245899;22;45291;-78
2022/12/06 10:49:51;;;;;;;;;59.25;46.25;;;;;5.53;76.73;101854.63;6246965;22;48177;-78
2022/12/06 10:52:35;;;;;;;;;54.75;42.75;;;;;5.70;76.61;101881.34;6245932;22;45307;-78
2022/12/06 10:55:04;;;;;;;;;58.00;43.25;;;;;5.61;76.80;101863.59;6245199;22;45280;-79
2022/12/06 10:57:53;;;;;;;;;57.50;44.00;;;;;5.65;76.74;101868.13;6246291;22;45238;-79
2022/12/06 11:00:26;;;;;;;;;62.25;44.75;;;;;5.55;76.78;101845.13;6245101;22;46328;-78
2022/12/06 11:03:07;;;;;;;;;62.00;47.50;;;;;5.74;76.83;101872.75;6244288;22;45410;-79
2022/12/06 11:05:54;;;;;;;;;59.75;46.75;;;;;5.77;77.06;101880.69;6247139;22;45267;-80
2022/12/06 11:08:35;;;;;;;;;58.25;47.75;;;;;5.63;77.04;101846.28;6244167;22;45254;-78
2022/12/06 11:11:12;;;;;;;;;64.75;49.25;;;;;5.60;76.71;101848.78;6243842;22;45444;-79
2022/12/06 11:13:58;;;;;;;;;59.75;44.50;;;;;5.69;76.83;101853.44;6244255;22;45523;-79
2022/12/06 11:17:03;;;;;;;;;58.25;42.00;;;;;5.69;76.62;101846.50;6244281;22;45146;-83
2022/12/06 11:20:00;;;;;;;;;63.25;47.50;;;;;5.79;76.89;101865.09;6268986;22;45633;-82
2022/12/06 11:22:46;;;;;;;;;63.75;47.75;;;;;5.63;76.52;101841.03;6247568;22;46184;-79
2022/12/06 11:25:33;;;;;;;;;62.75;47.50;;;;;5.78;76.92;101858.97;6245714;22;45502;-79
2022/12/06 11:28:20;;;;;;;;;64.00;49.25;;;;;5.65;77.18;101834.16;6248468;22;45386;-79
2022/12/06 11:31:02;;;;;;;;;62.75;49.50;;;;;5.83;77.10;101852.19;6246316;22;45309;-81
2022/12/06 11:33:46;;;;;;;;;;;;;;;;;;;;;
2022/12/06 11:36:14;;;;;;;;;64.00;48.50;;;;;5.77;77.31;101828.44;6249776;22;72787;-83
2022/12/06 11:38:57;;;;;;;;;67.00;49.00;;;;;5.82;77.12;101828.59;6254325;22;45494;-83
2022/12/06 11:42:12;;;;;;;;;58.00;47.50;;;;;5.76;77.08;101808.38;6286847;22;45428;-83
2022/12/06 11:47:45;;;;;;;;;;;;;;;;;;;;;
2022/12/06 11:50:23;;;;;;;;;55.75;41.25;;;;;5.90;77.28;101811.44;6278280;22;67505;-80
2022/12/06 11:52:54;;;;;;;;;61.00;46.75;;;;;5.83;76.85;101793.81;6252956;22;45629;-81
2022/12/06 11:55:34;;;;;;;;;64.00;47.00;;;;;5.87;76.80;101799.16;6253005;22;47032;-83
2022/12/06 11:58:19;;;;;;;;;61.25;49.00;;;;;6.08;76.96;101826.88;6249293;22;45351;-82
2022/12/06 12:01:24;;;;;;;;;67.75;52.00;;;;;6.08;77.20;101816.44;6250217;22;45610;-81
2022/12/06 12:04:38;;;;;;;;;;;;;;;;;;;;;
2022/12/06 12:07:25;;;;;;;;;68.25;52.00;;;;;6.09;76.95;101802.50;6277624;22;75861;-82
2022/12/06 12:10:20;;;;;;;;;58.75;47.50;;;;;6.14;77.12;101806.16;6277517;22;46009;-82
2022/12/06 12:15:50;;;;;;;;;69.25;53.00;;;;;6.15;76.94;101789.66;6277842;22;45603;-84
2022/12/06 12:19:22;;;;;;;;;69.00;51.75;;;;;6.05;76.86;101762.31;6249362;22;45912;-84
2022/12/06 12:21:54;;;;;;;;;65.00;49.75;;;;;6.27;76.98;101795.25;6188547;22;45576;-84
2022/12/06 12:24:47;;;;;;;;;70.75;52.75;;;;;6.26;77.29;101784.75;6277240;22;45433;-83
2022/12/06 12:27:54;;;;;;;;;;;;;;;;;;;;;